sensor_id;sensor_type;location;lat;lon;timestamp;temperature;humidity
15556;DHT22;7879;48.660;9.116;2023-04-06T00:00:53;0.50;99.90
15556;DHT22;7879;48.660;9.116;2023-04-06T00:03:21;0.30;99.90
15556;DHT22;7879;48.660;9.116;2023-04-06T00:05:48;0.20;99.90
15556;DHT22;7879;48.660;9.116;2023-04-06T00:08:15;0.30;99.90
15556;DHT22;7879;48.660;9.116;2023-04-06T00:10:42;0.10;99.90
15556;DHT22;7879;48.660;9.116;2023-04-06T00:13:09;0.10;99.90
15556;DHT22;7879;48.660;9.116;2023-04-06T00:15:36;0.10;99.90
15556;DHT22;7879;48.660;9.116;2023-04-06T00:18:03;0.10;99.90
15556;DHT22;7879;48.660;9.116;2023-04-06T00:20:30;0.10;99.90
15556;DHT22;7879;48.660;9.116;2023-04-06T00:22:57;0.10;99.90
15556;DHT22;7879;48.660;9.116;2023-04-06T00:25:25;0.10;99.90
15556;DHT22;7879;48.660;9.116;2023-04-06T00:27:52;0.10;99.90
15556;DHT22;7879;48.660;9.116;2023-04-06T00:30:19;0.00;99.90
15556;DHT22;7879;48.660;9.116;2023-04-06T00:32:46;0.00;99.90
15556;DHT22;7879;48.660;9.116;2023-04-06T00:35:12;-0.10;99.90
15556;DHT22;7879;48.660;9.116;2023-04-06T00:37:39;-0.20;99.90
15556;DHT22;7879;48.660;9.116;2023-04-06T00:40:07;-0.20;99.90
15556;DHT22;7879;48.660;9.116;2023-04-06T00:42:34;-0.20;99.90
15556;DHT22;7879;48.660;9.116;2023-04-06T00:45:01;-0.30;99.90
15556;DHT22;7879;48.660;9.116;2023-04-06T00:47:28;-0.30;99.90
15556;DHT22;7879;48.660;9.116;2023-04-06T00:49:56;-0.40;99.90
15556;DHT22;7879;48.660;9.116;2023-04-06T00:52:24;-0.50;99.90
15556;DHT22;7879;48.660;9.116;2023-04-06T00:54:51;-0.40;99.90
15556;DHT22;7879;48.660;9.116;2023-04-06T00:57:18;-0.40;99.90
15556;DHT22;7879;48.660;9.116;2023-04-06T00:59:45;-0.40;99.90
15556;DHT22;7879;48.660;9.116;2023-04-06T01:02:12;-0.40;99.90
15556;DHT22;7879;48.660;9.116;2023-04-06T01:04:39;-0.30;99.90
15556;DHT22;7879;48.660;9.116;2023-04-06T01:07:06;-0.40;99.90
15556;DHT22;7879;48.660;9.116;2023-04-06T01:09:33;-0.40;99.90
15556;DHT22;7879;48.660;9.116;2023-04-06T01:12:00;-0.40;99.90
15556;DHT22;7879;48.660;9.116;2023-04-06T01:14:27;-0.40;99.90
15556;DHT22;7879;48.660;9.116;2023-04-06T01:16:54;-0.50;99.90
15556;DHT22;7879;48.660;9.116;2023-04-06T01:19:22;-0.60;99.90
15556;DHT22;7879;48.660;9.116;2023-04-06T01:21:49;-0.60;99.90
15556;DHT22;7879;48.660;9.116;2023-04-06T01:24:17;-0.60;99.90
15556;DHT22;7879;48.660;9.116;2023-04-06T01:26:45;-0.70;99.90
15556;DHT22;7879;48.660;9.116;2023-04-06T01:29:12;-0.70;99.90
15556;DHT22;7879;48.660;9.116;2023-04-06T01:31:39;-0.70;99.90
15556;DHT22;7879;48.660;9.116;2023-04-06T01:34:06;-0.80;99.90
15556;DHT22;7879;48.660;9.116;2023-04-06T01:36:33;-0.80;99.90
15556;DHT22;7879;48.660;9.116;2023-04-06T01:39:01;-0.90;99.90
15556;DHT22;7879;48.660;9.116;2023-04-06T01:41:27;-1.00;99.90
15556;DHT22;7879;48.660;9.116;2023-04-06T01:43:54;-1.00;99.90
15556;DHT22;7879;48.660;9.116;2023-04-06T01:46:21;-1.10;99.90
15556;DHT22;7879;48.660;9.116;2023-04-06T01:48:48;-1.10;99.90
15556;DHT22;7879;48.660;9.116;2023-04-06T01:51:15;-0.90;99.90
15556;DHT22;7879;48.660;9.116;2023-04-06T01:53:42;-1.00;99.90
15556;DHT22;7879;48.660;9.116;2023-04-06T01:56:09;-1.00;99.90
15556;DHT22;7879;48.660;9.116;2023-04-06T01:58:36;-0.90;99.90
15556;DHT22;7879;48.660;9.116;2023-04-06T02:01:03;-1.00;99.90
15556;DHT22;7879;48.660;9.116;2023-04-06T02:03:29;-1.00;99.90
15556;DHT22;7879;48.660;9.116;2023-04-06T02:05:57;-1.10;99.90
15556;DHT22;7879;48.660;9.116;2023-04-06T02:08:24;-1.10;99.90
15556;DHT22;7879;48.660;9.116;2023-04-06T02:10:50;-1.10;99.90
15556;DHT22;7879;48.660;9.116;2023-04-06T02:13:17;-1.10;99.90
15556;DHT22;7879;48.660;9.116;2023-04-06T02:15:44;-1.10;99.90
15556;DHT22;7879;48.660;9.116;2023-04-06T02:18:11;-1.10;99.90
15556;DHT22;7879;48.660;9.116;2023-04-06T02:20:38;-1.10;99.90
15556;DHT22;7879;48.660;9.116;2023-04-06T02:23:04;-1.20;99.90
15556;DHT22;7879;48.660;9.116;2023-04-06T02:25:31;-1.30;99.90
15556;DHT22;7879;48.660;9.116;2023-04-06T02:27:58;-1.30;99.90
15556;DHT22;7879;48.660;9.116;2023-04-06T02:30:25;-1.30;99.90
15556;DHT22;7879;48.660;9.116;2023-04-06T02:32:52;-1.30;99.90
15556;DHT22;7879;48.660;9.116;2023-04-06T02:35:19;-1.40;99.90
15556;DHT22;7879;48.660;9.116;2023-04-06T02:37:46;-1.50;99.90
15556;DHT22;7879;48.660;9.116;2023-04-06T02:40:14;-1.60;99.90
15556;DHT22;7879;48.660;9.116;2023-04-06T02:42:41;-1.60;99.90
15556;DHT22;7879;48.660;9.116;2023-04-06T02:45:08;-1.60;99.90
15556;DHT22;7879;48.660;9.116;2023-04-06T02:47:35;-1.60;99.90
15556;DHT22;7879;48.660;9.116;2023-04-06T02:50:02;-1.60;99.90
15556;DHT22;7879;48.660;9.116;2023-04-06T02:52:29;-1.60;99.90
15556;DHT22;7879;48.660;9.116;2023-04-06T02:54:56;-1.60;99.90
15556;DHT22;7879;48.660;9.116;2023-04-06T02:57:23;-1.70;99.90
15556;DHT22;7879;48.660;9.116;2023-04-06T02:59:50;-1.80;99.90
15556;DHT22;7879;48.660;9.116;2023-04-06T03:02:17;-1.80;99.90
15556;DHT22;7879;48.660;9.116;2023-04-06T03:04:44;-1.80;99.90
15556;DHT22;7879;48.660;9.116;2023-04-06T03:07:11;-1.80;99.90
15556;DHT22;7879;48.660;9.116;2023-04-06T03:09:38;-1.80;99.90
15556;DHT22;7879;48.660;9.116;2023-04-06T03:12:05;-1.70;99.90
15556;DHT22;7879;48.660;9.116;2023-04-06T03:14:35;-1.80;99.90
15556;DHT22;7879;48.660;9.116;2023-04-06T03:17:02;-1.90;99.90
15556;DHT22;7879;48.660;9.116;2023-04-06T03:19:29;-1.90;99.90
15556;DHT22;7879;48.660;9.116;2023-04-06T03:21:55;-1.90;99.90
15556;DHT22;7879;48.660;9.116;2023-04-06T03:24:22;-1.90;99.90
15556;DHT22;7879;48.660;9.116;2023-04-06T03:26:49;-1.90;99.90
15556;DHT22;7879;48.660;9.116;2023-04-06T03:29:16;-1.90;99.90
15556;DHT22;7879;48.660;9.116;2023-04-06T03:31:43;-2.00;99.90
15556;DHT22;7879;48.660;9.116;2023-04-06T03:34:10;-2.00;99.90
15556;DHT22;7879;48.660;9.116;2023-04-06T03:36:37;-2.10;99.90
15556;DHT22;7879;48.660;9.116;2023-04-06T03:39:04;-2.00;99.90
15556;DHT22;7879;48.660;9.116;2023-04-06T03:41:32;-2.10;99.90
15556;DHT22;7879;48.660;9.116;2023-04-06T03:43:58;-2.20;99.90
15556;DHT22;7879;48.660;9.116;2023-04-06T03:46:26;-2.10;99.90
15556;DHT22;7879;48.660;9.116;2023-04-06T03:48:53;-2.10;99.90
15556;DHT22;7879;48.660;9.116;2023-04-06T03:51:19;-2.20;99.90
15556;DHT22;7879;48.660;9.116;2023-04-06T03:53:47;-2.20;99.90
15556;DHT22;7879;48.660;9.116;2023-04-06T03:56:14;-2.20;99.90
15556;DHT22;7879;48.660;9.116;2023-04-06T03:58:41;-2.30;99.90
15556;DHT22;7879;48.660;9.116;2023-04-06T04:01:08;-2.20;99.90
15556;DHT22;7879;48.660;9.116;2023-04-06T04:03:34;-2.20;99.90
15556;DHT22;7879;48.660;9.116;2023-04-06T04:06:02;-2.30;99.90
15556;DHT22;7879;48.660;9.116;2023-04-06T04:08:29;-2.40;99.90
15556;DHT22;7879;48.660;9.116;2023-04-06T04:10:55;-2.40;99.90
15556;DHT22;7879;48.660;9.116;2023-04-06T04:13:22;-2.40;99.90
15556;DHT22;7879;48.660;9.116;2023-04-06T04:15:49;-2.40;99.90
15556;DHT22;7879;48.660;9.116;2023-04-06T04:18:16;-2.40;99.90
15556;DHT22;7879;48.660;9.116;2023-04-06T04:20:43;-2.50;99.90
15556;DHT22;7879;48.660;9.116;2023-04-06T04:23:10;-2.50;99.90
15556;DHT22;7879;48.660;9.116;2023-04-06T04:25:37;-2.50;99.90
15556;DHT22;7879;48.660;9.116;2023-04-06T04:28:04;-2.60;99.90
15556;DHT22;7879;48.660;9.116;2023-04-06T04:30:30;-2.60;99.90
15556;DHT22;7879;48.660;9.116;2023-04-06T04:32:57;-2.60;99.90
15556;DHT22;7879;48.660;9.116;2023-04-06T04:35:26;-2.60;99.90
15556;DHT22;7879;48.660;9.116;2023-04-06T04:37:53;-2.60;99.90
15556;DHT22;7879;48.660;9.116;2023-04-06T04:40:20;-2.60;99.90
15556;DHT22;7879;48.660;9.116;2023-04-06T04:42:48;-2.60;99.90
15556;DHT22;7879;48.660;9.116;2023-04-06T04:45:15;-2.60;99.90
15556;DHT22;7879;48.660;9.116;2023-04-06T04:47:42;-2.60;99.90
15556;DHT22;7879;48.660;9.116;2023-04-06T04:50:10;-2.60;99.90
15556;DHT22;7879;48.660;9.116;2023-04-06T04:52:38;-2.70;99.90
15556;DHT22;7879;48.660;9.116;2023-04-06T04:55:08;-2.80;99.90
15556;DHT22;7879;48.660;9.116;2023-04-06T04:57:35;-2.80;99.90
15556;DHT22;7879;48.660;9.116;2023-04-06T05:00:02;-2.80;99.90
15556;DHT22;7879;48.660;9.116;2023-04-06T05:02:29;-2.80;99.90
15556;DHT22;7879;48.660;9.116;2023-04-06T05:04:56;-2.90;99.90
15556;DHT22;7879;48.660;9.116;2023-04-06T05:07:23;-2.80;99.90
15556;DHT22;7879;48.660;9.116;2023-04-06T05:09:51;-2.90;99.90
15556;DHT22;7879;48.660;9.116;2023-04-06T05:12:19;-2.90;99.90
15556;DHT22;7879;48.660;9.116;2023-04-06T05:14:46;-2.90;99.90
15556;DHT22;7879;48.660;9.116;2023-04-06T05:17:14;-2.90;99.90
15556;DHT22;7879;48.660;9.116;2023-04-06T05:19:40;-2.90;99.90
15556;DHT22;7879;48.660;9.116;2023-04-06T05:22:07;-2.90;99.90
15556;DHT22;7879;48.660;9.116;2023-04-06T05:24:35;-2.80;99.90
15556;DHT22;7879;48.660;9.116;2023-04-06T05:27:02;-2.80;99.90
15556;DHT22;7879;48.660;9.116;2023-04-06T05:29:29;-2.80;99.90
15556;DHT22;7879;48.660;9.116;2023-04-06T05:31:56;-2.80;99.90
15556;DHT22;7879;48.660;9.116;2023-04-06T05:34:23;-2.80;99.90
15556;DHT22;7879;48.660;9.116;2023-04-06T05:36:50;-2.80;99.90
15556;DHT22;7879;48.660;9.116;2023-04-06T05:39:17;-2.70;99.90
15556;DHT22;7879;48.660;9.116;2023-04-06T05:41:44;-2.50;99.90
15556;DHT22;7879;48.660;9.116;2023-04-06T05:44:11;-2.70;99.90
15556;DHT22;7879;48.660;9.116;2023-04-06T05:46:38;-2.60;99.90
15556;DHT22;7879;48.660;9.116;2023-04-06T05:49:05;-2.60;99.90
15556;DHT22;7879;48.660;9.116;2023-04-06T05:51:32;-2.60;99.90
15556;DHT22;7879;48.660;9.116;2023-04-06T05:53:59;-2.60;99.90
15556;DHT22;7879;48.660;9.116;2023-04-06T05:56:26;-2.50;99.90
15556;DHT22;7879;48.660;9.116;2023-04-06T05:58:53;-2.50;99.90
15556;DHT22;7879;48.660;9.116;2023-04-06T06:01:20;-2.50;99.90
15556;DHT22;7879;48.660;9.116;2023-04-06T06:03:47;-2.40;99.90
15556;DHT22;7879;48.660;9.116;2023-04-06T06:06:14;-2.30;99.90
15556;DHT22;7879;48.660;9.116;2023-04-06T06:08:41;-2.30;99.90
15556;DHT22;7879;48.660;9.116;2023-04-06T06:11:08;-2.20;99.90
15556;DHT22;7879;48.660;9.116;2023-04-06T06:13:35;-2.20;99.90
15556;DHT22;7879;48.660;9.116;2023-04-06T06:16:03;-2.10;99.90
15556;DHT22;7879;48.660;9.116;2023-04-06T06:18:32;-2.10;99.90
15556;DHT22;7879;48.660;9.116;2023-04-06T06:21:01;-1.90;99.90
15556;DHT22;7879;48.660;9.116;2023-04-06T06:23:28;-1.90;99.90
15556;DHT22;7879;48.660;9.116;2023-04-06T06:25:55;-1.80;99.90
15556;DHT22;7879;48.660;9.116;2023-04-06T06:28:25;-1.80;99.90
15556;DHT22;7879;48.660;9.116;2023-04-06T06:30:52;-1.70;99.90
15556;DHT22;7879;48.660;9.116;2023-04-06T06:33:19;-1.60;99.90
15556;DHT22;7879;48.660;9.116;2023-04-06T06:35:46;-1.60;99.90
15556;DHT22;7879;48.660;9.116;2023-04-06T06:38:13;-1.50;99.90
15556;DHT22;7879;48.660;9.116;2023-04-06T06:40:41;-1.40;99.90
15556;DHT22;7879;48.660;9.116;2023-04-06T06:43:08;-1.40;99.90
15556;DHT22;7879;48.660;9.116;2023-04-06T06:45:35;-1.30;99.90
15556;DHT22;7879;48.660;9.116;2023-04-06T06:48:02;-1.20;99.90
15556;DHT22;7879;48.660;9.116;2023-04-06T06:50:29;-1.20;99.90
15556;DHT22;7879;48.660;9.116;2023-04-06T06:52:56;-1.10;99.90
15556;DHT22;7879;48.660;9.116;2023-04-06T06:55:23;-1.00;99.90
15556;DHT22;7879;48.660;9.116;2023-04-06T06:57:50;-0.90;99.90
15556;DHT22;7879;48.660;9.116;2023-04-06T07:00:17;-0.80;99.90
15556;DHT22;7879;48.660;9.116;2023-04-06T07:02:44;-0.70;99.90
15556;DHT22;7879;48.660;9.116;2023-04-06T07:05:12;-0.60;99.90
15556;DHT22;7879;48.660;9.116;2023-04-06T07:07:49;-0.40;99.90
15556;DHT22;7879;48.660;9.116;2023-04-06T07:10:19;-0.30;99.90
15556;DHT22;7879;48.660;9.116;2023-04-06T07:12:47;-0.20;99.90
15556;DHT22;7879;48.660;9.116;2023-04-06T07:15:15;-0.10;99.90
15556;DHT22;7879;48.660;9.116;2023-04-06T07:17:43;0.10;99.90
15556;DHT22;7879;48.660;9.116;2023-04-06T07:20:12;0.20;99.90
15556;DHT22;7879;48.660;9.116;2023-04-06T07:22:42;0.20;99.90
15556;DHT22;7879;48.660;9.116;2023-04-06T07:25:11;0.30;99.90
15556;DHT22;7879;48.660;9.116;2023-04-06T07:27:38;0.30;99.90
15556;DHT22;7879;48.660;9.116;2023-04-06T07:30:05;0.50;99.90
15556;DHT22;7879;48.660;9.116;2023-04-06T07:32:33;0.60;99.90
15556;DHT22;7879;48.660;9.116;2023-04-06T07:35:02;0.70;99.90
15556;DHT22;7879;48.660;9.116;2023-04-06T07:37:29;0.90;99.90
15556;DHT22;7879;48.660;9.116;2023-04-06T07:39:57;1.00;99.90
15556;DHT22;7879;48.660;9.116;2023-04-06T07:42:24;1.30;99.90
15556;DHT22;7879;48.660;9.116;2023-04-06T07:44:51;1.40;99.90
15556;DHT22;7879;48.660;9.116;2023-04-06T07:47:18;1.70;99.90
15556;DHT22;7879;48.660;9.116;2023-04-06T07:49:45;1.80;99.90
15556;DHT22;7879;48.660;9.116;2023-04-06T07:52:12;1.90;99.90
15556;DHT22;7879;48.660;9.116;2023-04-06T07:54:40;2.00;99.90
15556;DHT22;7879;48.660;9.116;2023-04-06T07:57:08;2.10;99.90
15556;DHT22;7879;48.660;9.116;2023-04-06T07:59:35;2.40;99.90
15556;DHT22;7879;48.660;9.116;2023-04-06T08:02:02;2.50;99.90
15556;DHT22;7879;48.660;9.116;2023-04-06T08:04:29;2.60;99.90
15556;DHT22;7879;48.660;9.116;2023-04-06T08:06:56;2.60;99.90
15556;DHT22;7879;48.660;9.116;2023-04-06T08:09:28;2.70;99.90
15556;DHT22;7879;48.660;9.116;2023-04-06T08:11:55;2.80;99.90
15556;DHT22;7879;48.660;9.116;2023-04-06T08:14:22;2.90;99.90
15556;DHT22;7879;48.660;9.116;2023-04-06T08:16:49;2.90;99.90
15556;DHT22;7879;48.660;9.116;2023-04-06T08:19:15;3.20;99.90
15556;DHT22;7879;48.660;9.116;2023-04-06T08:21:44;3.30;99.90
15556;DHT22;7879;48.660;9.116;2023-04-06T08:24:13;3.30;99.90
15556;DHT22;7879;48.660;9.116;2023-04-06T08:26:41;3.50;99.90
15556;DHT22;7879;48.660;9.116;2023-04-06T08:29:08;3.60;99.90
15556;DHT22;7879;48.660;9.116;2023-04-06T08:31:35;3.40;99.90
15556;DHT22;7879;48.660;9.116;2023-04-06T08:34:04;3.70;99.90
15556;DHT22;7879;48.660;9.116;2023-04-06T08:36:33;3.80;99.90
15556;DHT22;7879;48.660;9.116;2023-04-06T08:39:00;4.00;99.90
15556;DHT22;7879;48.660;9.116;2023-04-06T08:41:27;4.20;99.90
15556;DHT22;7879;48.660;9.116;2023-04-06T08:44:01;4.30;99.90
15556;DHT22;7879;48.660;9.116;2023-04-06T08:46:30;4.40;99.90
15556;DHT22;7879;48.660;9.116;2023-04-06T08:49:01;4.50;99.90
15556;DHT22;7879;48.660;9.116;2023-04-06T08:51:29;4.60;99.90
15556;DHT22;7879;48.660;9.116;2023-04-06T08:53:58;4.70;99.90
15556;DHT22;7879;48.660;9.116;2023-04-06T08:56:27;5.00;99.90
15556;DHT22;7879;48.660;9.116;2023-04-06T08:58:55;5.20;99.90
15556;DHT22;7879;48.660;9.116;2023-04-06T09:01:34;5.40;99.90
15556;DHT22;7879;48.660;9.116;2023-04-06T09:04:03;5.60;99.90
15556;DHT22;7879;48.660;9.116;2023-04-06T09:06:36;5.70;99.90
15556;DHT22;7879;48.660;9.116;2023-04-06T09:09:03;5.80;99.20
15556;DHT22;7879;48.660;9.116;2023-04-06T09:11:45;6.00;99.40
15556;DHT22;7879;48.660;9.116;2023-04-06T09:14:12;6.20;99.50
15556;DHT22;7879;48.660;9.116;2023-04-06T09:16:40;6.40;98.00
15556;DHT22;7879;48.660;9.116;2023-04-06T09:19:09;6.50;96.70
15556;DHT22;7879;48.660;9.116;2023-04-06T09:21:37;6.70;95.60
15556;DHT22;7879;48.660;9.116;2023-04-06T09:24:06;6.90;95.30
15556;DHT22;7879;48.660;9.116;2023-04-06T09:26:44;7.10;94.80
15556;DHT22;7879;48.660;9.116;2023-04-06T09:29:25;7.20;94.00
15556;DHT22;7879;48.660;9.116;2023-04-06T09:32:02;7.40;93.90
15556;DHT22;7879;48.660;9.116;2023-04-06T09:34:30;7.60;93.10
15556;DHT22;7879;48.660;9.116;2023-04-06T09:36:57;7.80;91.30
15556;DHT22;7879;48.660;9.116;2023-04-06T09:39:25;8.20;91.80
15556;DHT22;7879;48.660;9.116;2023-04-06T09:41:53;8.40;89.30
15556;DHT22;7879;48.660;9.116;2023-04-06T09:44:20;8.40;87.90
15556;DHT22;7879;48.660;9.116;2023-04-06T09:46:47;8.30;90.10
15556;DHT22;7879;48.660;9.116;2023-04-06T09:49:27;8.40;88.10
15556;DHT22;7879;48.660;9.116;2023-04-06T09:52:14;8.40;85.70
15556;DHT22;7879;48.660;9.116;2023-04-06T09:54:42;8.50;86.30
15556;DHT22;7879;48.660;9.116;2023-04-06T09:57:11;8.50;87.20
15556;DHT22;7879;48.660;9.116;2023-04-06T10:05:26;9.10;90.90
15556;DHT22;7879;48.660;9.116;2023-04-06T10:07:59;9.30;85.20
15556;DHT22;7879;48.660;9.116;2023-04-06T10:10:28;9.30;87.40
15556;DHT22;7879;48.660;9.116;2023-04-06T10:12:56;9.40;80.60
15556;DHT22;7879;48.660;9.116;2023-04-06T10:15:23;9.40;81.90
15556;DHT22;7879;48.660;9.116;2023-04-06T10:17:51;9.60;80.50
15556;DHT22;7879;48.660;9.116;2023-04-06T10:23:35;9.90;79.50
15556;DHT22;7879;48.660;9.116;2023-04-06T10:26:01;10.00;77.30
15556;DHT22;7879;48.660;9.116;2023-04-06T10:28:33;10.10;74.70
15556;DHT22;7879;48.660;9.116;2023-04-06T10:31:05;10.20;75.60
15556;DHT22;7879;48.660;9.116;2023-04-06T10:33:32;10.50;76.50
15556;DHT22;7879;48.660;9.116;2023-04-06T10:36:12;10.60;73.40
15556;DHT22;7879;48.660;9.116;2023-04-06T10:38:41;10.70;74.30
15556;DHT22;7879;48.660;9.116;2023-04-06T10:41:10;10.80;73.40
15556;DHT22;7879;48.660;9.116;2023-04-06T10:43:39;10.80;73.00
15556;DHT22;7879;48.660;9.116;2023-04-06T10:46:08;11.00;74.80
15556;DHT22;7879;48.660;9.116;2023-04-06T10:48:43;11.20;73.40
15556;DHT22;7879;48.660;9.116;2023-04-06T10:51:15;11.40;75.20
15556;DHT22;7879;48.660;9.116;2023-04-06T10:53:44;11.40;71.70
15556;DHT22;7879;48.660;9.116;2023-04-06T10:56:14;11.50;74.20
15556;DHT22;7879;48.660;9.116;2023-04-06T10:58:49;11.60;71.80
15556;DHT22;7879;48.660;9.116;2023-04-06T11:01:17;11.70;70.20
15556;DHT22;7879;48.660;9.116;2023-04-06T11:03:46;11.90;70.00
15556;DHT22;7879;48.660;9.116;2023-04-06T11:06:25;11.90;67.20
15556;DHT22;7879;48.660;9.116;2023-04-06T11:08:53;11.90;66.90
15556;DHT22;7879;48.660;9.116;2023-04-06T11:11:22;11.90;67.40
15556;DHT22;7879;48.660;9.116;2023-04-06T11:14:00;12.10;67.10
15556;DHT22;7879;48.660;9.116;2023-04-06T11:16:37;12.20;66.20
15556;DHT22;7879;48.660;9.116;2023-04-06T11:19:07;12.60;66.50
15556;DHT22;7879;48.660;9.116;2023-04-06T11:21:45;12.80;63.70
15556;DHT22;7879;48.660;9.116;2023-04-06T11:24:18;12.90;63.50
15556;DHT22;7879;48.660;9.116;2023-04-06T11:29:20;13.10;62.10
15556;DHT22;7879;48.660;9.116;2023-04-06T11:31:50;13.40;62.20
15556;DHT22;7879;48.660;9.116;2023-04-06T11:34:21;13.50;61.10
15556;DHT22;7879;48.660;9.116;2023-04-06T11:37:09;13.70;61.40
15556;DHT22;7879;48.660;9.116;2023-04-06T11:39:51;13.60;59.00
15556;DHT22;7879;48.660;9.116;2023-04-06T11:42:25;13.60;60.60
15556;DHT22;7879;48.660;9.116;2023-04-06T11:44:58;13.60;57.10
15556;DHT22;7879;48.660;9.116;2023-04-06T11:47:33;13.50;59.70
15556;DHT22;7879;48.660;9.116;2023-04-06T11:50:10;13.60;59.40
15556;DHT22;7879;48.660;9.116;2023-04-06T11:52:38;13.80;58.10
15556;DHT22;7879;48.660;9.116;2023-04-06T11:55:13;13.90;57.90
15556;DHT22;7879;48.660;9.116;2023-04-06T11:57:42;14.00;57.60
15556;DHT22;7879;48.660;9.116;2023-04-06T12:00:10;14.10;59.30
15556;DHT22;7879;48.660;9.116;2023-04-06T12:02:38;14.20;55.80
15556;DHT22;7879;48.660;9.116;2023-04-06T12:05:06;14.10;56.50
15556;DHT22;7879;48.660;9.116;2023-04-06T12:07:36;14.00;54.80
15556;DHT22;7879;48.660;9.116;2023-04-06T12:10:05;14.00;53.50
15556;DHT22;7879;48.660;9.116;2023-04-06T12:12:32;13.70;54.50
15556;DHT22;7879;48.660;9.116;2023-04-06T12:14:59;13.60;53.10
15556;DHT22;7879;48.660;9.116;2023-04-06T12:17:26;13.60;54.50
15556;DHT22;7879;48.660;9.116;2023-04-06T12:19:53;13.70;52.70
15556;DHT22;7879;48.660;9.116;2023-04-06T12:22:24;13.50;51.30
15556;DHT22;7879;48.660;9.116;2023-04-06T12:24:51;13.50;52.40
15556;DHT22;7879;48.660;9.116;2023-04-06T12:27:22;13.70;51.90
15556;DHT22;7879;48.660;9.116;2023-04-06T12:29:49;13.50;51.90
15556;DHT22;7879;48.660;9.116;2023-04-06T12:32:25;13.50;51.90
15556;DHT22;7879;48.660;9.116;2023-04-06T12:35:05;13.50;53.10
15556;DHT22;7879;48.660;9.116;2023-04-06T12:37:37;13.60;55.80
15556;DHT22;7879;48.660;9.116;2023-04-06T12:40:04;13.70;52.80
15556;DHT22;7879;48.660;9.116;2023-04-06T12:42:33;13.70;53.30
15556;DHT22;7879;48.660;9.116;2023-04-06T12:45:03;13.60;55.50
15556;DHT22;7879;48.660;9.116;2023-04-06T12:47:30;13.70;55.90
15556;DHT22;7879;48.660;9.116;2023-04-06T12:50:07;13.70;53.60
15556;DHT22;7879;48.660;9.116;2023-04-06T12:52:35;13.50;55.20
15556;DHT22;7879;48.660;9.116;2023-04-06T12:55:05;13.70;56.30
15556;DHT22;7879;48.660;9.116;2023-04-06T12:57:33;13.70;56.00
15556;DHT22;7879;48.660;9.116;2023-04-06T13:00:00;13.70;54.50
15556;DHT22;7879;48.660;9.116;2023-04-06T13:02:27;13.70;53.10
15556;DHT22;7879;48.660;9.116;2023-04-06T13:04:57;13.60;54.10
15556;DHT22;7879;48.660;9.116;2023-04-06T13:07:27;13.50;55.80
15556;DHT22;7879;48.660;9.116;2023-04-06T13:09:54;13.50;53.70
15556;DHT22;7879;48.660;9.116;2023-04-06T13:12:21;13.40;53.40
15556;DHT22;7879;48.660;9.116;2023-04-06T13:14:49;13.50;55.20
15556;DHT22;7879;48.660;9.116;2023-04-06T13:17:23;13.50;53.70
15556;DHT22;7879;48.660;9.116;2023-04-06T13:19:50;13.50;53.20
15556;DHT22;7879;48.660;9.116;2023-04-06T13:22:31;13.50;52.70
15556;DHT22;7879;48.660;9.116;2023-04-06T13:25:03;13.40;53.70
15556;DHT22;7879;48.660;9.116;2023-04-06T13:27:33;13.30;51.30
15556;DHT22;7879;48.660;9.116;2023-04-06T13:30:29;13.40;52.00
15556;DHT22;7879;48.660;9.116;2023-04-06T13:32:56;13.40;50.50
15556;DHT22;7879;48.660;9.116;2023-04-06T13:35:23;13.40;50.60
15556;DHT22;7879;48.660;9.116;2023-04-06T13:37:50;13.50;51.30
15556;DHT22;7879;48.660;9.116;2023-04-06T13:40:24;13.60;52.40
15556;DHT22;7879;48.660;9.116;2023-04-06T13:42:51;13.70;53.10
15556;DHT22;7879;48.660;9.116;2023-04-06T13:45:21;13.60;51.90
15556;DHT22;7879;48.660;9.116;2023-04-06T13:47:48;13.60;53.60
15556;DHT22;7879;48.660;9.116;2023-04-06T13:50:21;13.60;51.40
15556;DHT22;7879;48.660;9.116;2023-04-06T13:52:48;13.50;52.10
15556;DHT22;7879;48.660;9.116;2023-04-06T13:55:16;13.50;53.90
15556;DHT22;7879;48.660;9.116;2023-04-06T13:57:50;13.60;54.70
15556;DHT22;7879;48.660;9.116;2023-04-06T14:00:23;13.60;54.00
15556;DHT22;7879;48.660;9.116;2023-04-06T14:03:01;13.70;53.00
15556;DHT22;7879;48.660;9.116;2023-04-06T14:05:33;13.70;54.30
15556;DHT22;7879;48.660;9.116;2023-04-06T14:08:20;13.90;54.70
15556;DHT22;7879;48.660;9.116;2023-04-06T14:10:47;13.90;53.20
15556;DHT22;7879;48.660;9.116;2023-04-06T14:13:21;13.90;53.80
15556;DHT22;7879;48.660;9.116;2023-04-06T14:15:53;14.00;53.20
15556;DHT22;7879;48.660;9.116;2023-04-06T14:18:23;13.80;54.00
15556;DHT22;7879;48.660;9.116;2023-04-06T14:20:56;13.90;52.00
15556;DHT22;7879;48.660;9.116;2023-04-06T14:23:24;13.60;49.80
15556;DHT22;7879;48.660;9.116;2023-04-06T14:26:04;13.80;52.00
15556;DHT22;7879;48.660;9.116;2023-04-06T14:28:35;13.90;53.20
15556;DHT22;7879;48.660;9.116;2023-04-06T14:31:13;13.90;50.90
15556;DHT22;7879;48.660;9.116;2023-04-06T14:33:44;13.80;51.70
15556;DHT22;7879;48.660;9.116;2023-04-06T14:36:20;13.90;50.70
15556;DHT22;7879;48.660;9.116;2023-04-06T14:38:58;13.90;52.30
15556;DHT22;7879;48.660;9.116;2023-04-06T14:41:31;13.80;54.60
15556;DHT22;7879;48.660;9.116;2023-04-06T14:43:58;13.90;56.30
15556;DHT22;7879;48.660;9.116;2023-04-06T14:46:31;14.00;53.50
15556;DHT22;7879;48.660;9.116;2023-04-06T14:49:04;13.80;52.50
15556;DHT22;7879;48.660;9.116;2023-04-06T14:51:36;13.70;53.50
15556;DHT22;7879;48.660;9.116;2023-04-06T14:54:06;13.60;51.50
15556;DHT22;7879;48.660;9.116;2023-04-06T14:56:35;13.60;52.00
15556;DHT22;7879;48.660;9.116;2023-04-06T14:59:08;13.60;54.30
15556;DHT22;7879;48.660;9.116;2023-04-06T15:01:36;13.60;54.90
15556;DHT22;7879;48.660;9.116;2023-04-06T15:04:06;13.60;55.30
15556;DHT22;7879;48.660;9.116;2023-04-06T15:06:44;13.70;56.30
15556;DHT22;7879;48.660;9.116;2023-04-06T15:09:30;13.70;55.50
15556;DHT22;7879;48.660;9.116;2023-04-06T15:12:35;13.70;56.40
15556;DHT22;7879;48.660;9.116;2023-04-06T15:15:07;13.60;54.80
15556;DHT22;7879;48.660;9.116;2023-04-06T15:17:53;13.50;57.50
15556;DHT22;7879;48.660;9.116;2023-04-06T15:20:33;13.50;58.40
15556;DHT22;7879;48.660;9.116;2023-04-06T15:23:02;13.50;56.20
15556;DHT22;7879;48.660;9.116;2023-04-06T15:25:32;13.50;56.30
15556;DHT22;7879;48.660;9.116;2023-04-06T15:31:15;13.50;57.00
15556;DHT22;7879;48.660;9.116;2023-04-06T15:34:12;13.40;55.60
15556;DHT22;7879;48.660;9.116;2023-04-06T15:36:54;13.30;56.50
15556;DHT22;7879;48.660;9.116;2023-04-06T15:39:27;13.20;58.70
15556;DHT22;7879;48.660;9.116;2023-04-06T15:42:07;13.30;58.90
15556;DHT22;7879;48.660;9.116;2023-04-06T15:44:37;13.30;58.50
15556;DHT22;7879;48.660;9.116;2023-04-06T15:47:17;13.40;59.60
15556;DHT22;7879;48.660;9.116;2023-04-06T15:49:55;13.20;59.60
15556;DHT22;7879;48.660;9.116;2023-04-06T15:52:29;13.20;58.60
15556;DHT22;7879;48.660;9.116;2023-04-06T15:55:13;13.20;58.50
15556;DHT22;7879;48.660;9.116;2023-04-06T15:58:14;13.10;59.00
15556;DHT22;7879;48.660;9.116;2023-04-06T16:01:17;13.10;57.50
15556;DHT22;7879;48.660;9.116;2023-04-06T16:03:50;13.00;59.40
15556;DHT22;7879;48.660;9.116;2023-04-06T16:06:26;12.90;59.00
15556;DHT22;7879;48.660;9.116;2023-04-06T16:09:08;12.90;58.60
15556;DHT22;7879;48.660;9.116;2023-04-06T16:11:40;12.90;59.20
15556;DHT22;7879;48.660;9.116;2023-04-06T16:14:23;12.80;57.30
15556;DHT22;7879;48.660;9.116;2023-04-06T16:17:00;12.80;57.10
15556;DHT22;7879;48.660;9.116;2023-04-06T16:19:39;12.80;58.30